This is the latest recevied weather packets stored in our database for station/object KA9CBS. If no packets are shown the sender has not sent any weather packets the latest 10 day(s).
| Time | Temp. | Humidity | Pressure | Rain* | Wind** | Luminosity | Snow |
|---|---|---|---|---|---|---|---|
| 1788038207 | 31.11° C | 47% | 1019.9 hPa | 0 mm | - | 213 W/m² | - |
| 1788037902 | 30.56° C | 51% | 1020.2 hPa | 0 mm | - | 321 W/m² | - |
| 1788037598 | 30.56° C | 50% | 1020.1 hPa | 0 mm | - | 154 W/m² | - |
| 1788037293 | 31.11° C | 46% | 1020 hPa | 0 mm | - | 182 W/m² | - |
| 1788036992 | 31.11° C | 47% | 1020 hPa | 0 mm | - | 354 W/m² | - |
| 1788036689 | 31.67° C | 47% | 1020 hPa | 0 mm | - | 454 W/m² | - |
| 1788036385 | 32.22° C | 45% | 1020.1 hPa | 0 mm | - | 483 W/m² | - |
| 1788036079 | 32.22° C | 44% | 1020.3 hPa | 0 mm | - | 526 W/m² | - |
| 1788035778 | 31.67° C | 45% | 1020.2 hPa | 0 mm | - | 567 W/m² | - |
| 1788035474 | 30.56° C | 48% | 1020.5 hPa | 0 mm | - | 573 W/m² | - |
| 1788035169 | 30.56° C | 48% | 1020.2 hPa | 0 mm | - | 439 W/m² | - |
| 1788034859 | 30.56° C | 46% | 1020.5 hPa | 0 mm | - | 239 W/m² | - |
| 1788034554 | 30.56° C | 47% | 1020.6 hPa | 0 mm | - | 444 W/m² | - |
| 1788034251 | 31.11° C | 48% | 1020.8 hPa | 0 mm | - | 294 W/m² | - |
| 1788033950 | 32.78° C | 46% | 1020.8 hPa | 0 mm | - | 588 W/m² | - |
| 1788033640 | 31.67° C | 49% | 1020.8 hPa | 0 mm | - | 623 W/m² | - |
| 1788033339 | 30.56° C | 49% | 1020.9 hPa | 0 mm | - | 545 W/m² | - |
| 1788033035 | 31.11° C | 50% | 1020.7 hPa | 0 mm | - | 399 W/m² | - |
| 1788032734 | 31.67° C | 47% | 1020.9 hPa | 0 mm | - | 738 W/m² | - |
| 1788032429 | 31.67° C | 48% | 1020.8 hPa | 0 mm | - | 632 W/m² | - |
| 1788032125 | 31.67° C | 48% | 1021 hPa | 0 mm | - | 718 W/m² | - |
| 1788031821 | 31.67° C | 48% | 1021 hPa | 0 mm | - | 683 W/m² | - |
| 1788031521 | 31.11° C | 47% | 1021 hPa | 0 mm | - | 451 W/m² | - |
| 1788031221 | 31.11° C | 48% | 1021.3 hPa | 0 mm | - | 681 W/m² | - |
| 1788030920 | 30.56° C | 51% | 1021.1 hPa | 0 mm | - | 736 W/m² | - |
* Rain latest hour (hover to see other rain measurements)
** Current wind speed in m/s (hover to see current wind gust speed)